createdAt,value
2017-06-13T00:01:07.528Z,3.73
2017-06-13T00:03:36.596Z,3.40
2017-06-13T00:06:05.685Z,3.00
2017-06-13T00:08:35.478Z,4.00
2017-06-13T00:11:05.351Z,3.80
2017-06-13T00:13:34.405Z,4.30
2017-06-13T00:16:03.459Z,3.53
2017-06-13T00:18:32.576Z,4.47
2017-06-13T00:21:01.673Z,5.03
2017-06-13T00:23:30.721Z,3.83
2017-06-13T00:25:59.817Z,4.03
2017-06-13T00:28:29.376Z,4.23
2017-06-13T00:30:58.406Z,4.20
2017-06-13T00:33:27.471Z,3.53
2017-06-13T00:35:57.105Z,3.30
2017-06-13T00:38:26.155Z,3.90
2017-06-13T00:40:55.228Z,4.00
2017-06-13T00:43:24.313Z,4.00
2017-06-13T00:45:53.377Z,3.80
2017-06-13T00:48:22.440Z,4.80
2017-06-13T00:50:51.500Z,3.63
2017-06-13T00:53:20.653Z,4.40
2017-06-13T00:55:49.720Z,4.70
2017-06-13T00:58:18.793Z,4.33
2017-06-13T01:00:47.849Z,4.33
2017-06-13T01:03:16.900Z,4.03
2017-06-13T01:05:45.988Z,4.00
2017-06-13T01:08:15.121Z,4.10
2017-06-13T01:10:44.949Z,4.00
2017-06-13T01:13:14.018Z,3.63
2017-06-13T01:15:43.845Z,3.80
2017-06-13T01:18:12.901Z,3.93
2017-06-13T01:20:41.972Z,3.63
2017-06-13T01:23:11.047Z,3.80
2017-06-13T01:25:40.123Z,4.30
2017-06-13T01:28:09.835Z,3.80
2017-06-13T01:30:40.167Z,4.07
2017-06-13T01:33:09.219Z,4.57
2017-06-13T01:35:38.269Z,3.70
2017-06-13T01:38:07.383Z,4.13
2017-06-13T01:40:36.418Z,3.90
2017-06-13T01:43:05.464Z,4.80
2017-06-13T01:45:34.536Z,4.83
2017-06-13T01:48:03.597Z,4.63
2017-06-13T01:50:32.659Z,4.33
2017-06-13T01:53:01.740Z,4.10
2017-06-13T01:55:30.795Z,4.77
2017-06-13T01:58:00.624Z,5.03
2017-06-13T02:00:29.696Z,4.30
2017-06-13T02:02:58.761Z,3.90
2017-06-13T02:05:27.821Z,4.50
2017-06-13T02:07:56.895Z,5.20
2017-06-13T02:10:26.725Z,4.80
2017-06-13T02:12:55.803Z,4.13
2017-06-13T02:15:25.635Z,4.23
2017-06-13T02:17:54.718Z,5.30
2017-06-13T02:20:23.767Z,5.63
2017-06-13T02:22:52.819Z,4.90
2017-06-13T02:25:21.888Z,4.90
2017-06-13T02:27:51.703Z,4.63
2017-06-13T02:30:21.556Z,4.47
2017-06-13T02:32:50.623Z,4.47
2017-06-13T02:35:19.692Z,4.47
2017-06-13T02:37:49.537Z,4.70
2017-06-13T02:40:18.603Z,5.00
2017-06-13T02:42:47.689Z,4.83
2017-06-13T02:45:16.999Z,4.80
2017-06-13T02:47:46.041Z,5.03
2017-06-13T02:50:15.105Z,6.10
2017-06-13T02:52:44.169Z,4.83
2017-06-13T02:55:13.254Z,4.87
2017-06-13T02:57:42.332Z,5.13
2017-06-13T03:00:11.515Z,5.93
2017-06-13T03:02:40.595Z,4.60
2017-06-13T03:05:09.662Z,5.10
2017-06-13T03:07:39.479Z,4.93
2017-06-13T03:10:09.356Z,4.93
2017-06-13T03:12:38.417Z,4.43
2017-06-13T03:15:07.502Z,4.40
2017-06-13T03:17:36.561Z,5.60
2017-06-13T03:20:05.612Z,5.90
2017-06-13T03:22:34.712Z,4.70
2017-06-13T03:25:03.759Z,5.27
2017-06-13T03:27:33.652Z,4.57
2017-06-13T03:30:03.156Z,4.40
2017-06-13T03:32:32.208Z,5.20
2017-06-13T03:35:01.297Z,5.70
2017-06-13T03:37:30.376Z,4.37
2017-06-13T03:40:00.212Z,5.20
2017-06-13T03:42:29.282Z,5.40
2017-06-13T03:44:59.098Z,5.00
2017-06-13T03:47:28.963Z,5.30
2017-06-13T03:49:58.033Z,5.53
2017-06-13T03:52:27.108Z,4.77
2017-06-13T03:54:56.188Z,5.30
2017-06-13T03:57:25.239Z,4.90
2017-06-13T03:59:54.323Z,5.77
2017-06-13T04:02:23.372Z,5.70
2017-06-13T04:04:52.443Z,5.27
2017-06-13T04:07:21.773Z,6.37
2017-06-13T04:09:51.599Z,5.30
2017-06-13T04:12:20.664Z,6.20
2017-06-13T04:14:49.737Z,5.23
2017-06-13T04:17:18.835Z,6.23
2017-06-13T04:19:47.896Z,6.43
2017-06-13T04:22:16.955Z,5.20
2017-06-13T04:24:46.024Z,4.77
2017-06-13T04:27:15.095Z,5.40
2017-06-13T04:29:44.140Z,5.73
2017-06-13T04:32:13.984Z,5.60
2017-06-13T04:34:43.066Z,5.57
2017-06-13T04:37:12.128Z,5.00
2017-06-13T04:39:41.185Z,5.70
2017-06-13T04:42:10.260Z,6.23
2017-06-13T04:44:39.327Z,5.40
2017-06-13T04:47:08.397Z,6.20
2017-06-13T04:49:37.504Z,5.00
2017-06-13T04:52:07.468Z,5.30
2017-06-13T04:54:36.564Z,5.83
2017-06-13T04:57:05.723Z,5.60
2017-06-13T04:59:34.795Z,5.40
2017-06-13T05:02:03.877Z,6.07
2017-06-13T05:04:32.936Z,5.90
2017-06-13T05:07:02.033Z,6.53
2017-06-13T05:09:31.835Z,5.73
2017-06-13T05:12:01.687Z,6.73
2017-06-13T05:14:30.741Z,6.40
2017-06-13T05:17:00.556Z,5.80
2017-06-13T05:19:29.654Z,6.27
2017-06-13T05:21:59.458Z,6.20
2017-06-13T05:24:28.541Z,6.03
2017-06-13T05:26:57.607Z,6.97
2017-06-13T05:29:26.680Z,7.30
2017-06-13T05:31:55.740Z,7.47
2017-06-13T05:34:25.571Z,7.90
2017-06-13T05:36:54.627Z,6.53
2017-06-13T05:39:23.692Z,6.47
2017-06-13T05:41:52.781Z,6.83
2017-06-13T05:44:21.830Z,6.90
2017-06-13T05:46:51.656Z,7.20
2017-06-13T05:49:20.743Z,6.60
2017-06-13T05:51:50.574Z,7.03
2017-06-13T05:54:19.631Z,9.00
2017-06-13T05:56:48.720Z,8.57
2017-06-13T05:59:17.787Z,7.80
2017-06-13T06:01:46.855Z,8.43
2017-06-13T06:04:15.936Z,8.30
2017-06-13T06:06:45.020Z,7.47
2017-06-13T06:09:14.890Z,7.87
2017-06-13T06:11:43.967Z,7.87
2017-06-13T06:14:13.020Z,7.70
2017-06-13T06:16:42.865Z,8.27
2017-06-13T06:19:11.919Z,7.97
2017-06-13T06:21:40.988Z,8.10
2017-06-13T06:24:10.061Z,9.27
2017-06-13T06:26:39.120Z,7.67
2017-06-13T06:29:09.152Z,8.27
2017-06-13T06:31:38.219Z,7.40
2017-06-13T06:34:07.307Z,7.27
2017-06-13T06:36:36.453Z,7.70
2017-06-13T06:39:05.513Z,9.27
2017-06-13T06:41:35.337Z,8.40
2017-06-13T06:44:05.235Z,7.97
2017-06-13T06:46:34.291Z,7.80
2017-06-13T06:49:03.346Z,7.90
2017-06-13T06:51:32.440Z,7.70
2017-06-13T06:54:01.510Z,8.10
2017-06-13T06:56:30.576Z,8.50
2017-06-13T06:58:59.658Z,9.17
2017-06-13T07:01:28.725Z,11.37
2017-06-13T07:03:57.804Z,10.30
2017-06-13T07:06:27.636Z,8.80
2017-06-13T07:08:56.720Z,9.97
2017-06-13T07:11:26.560Z,11.20
2017-06-13T07:13:55.638Z,10.53
2017-06-13T07:16:25.469Z,10.60
2017-06-13T07:18:54.561Z,10.93
2017-06-13T07:21:23.627Z,11.67
2017-06-13T07:23:53.465Z,10.03
2017-06-13T07:26:22.566Z,9.70
2017-06-13T07:28:52.327Z,10.20
2017-06-13T07:31:21.547Z,9.53
2017-06-13T07:33:51.684Z,8.77
2017-06-13T07:36:20.752Z,10.03
2017-06-13T07:38:50.452Z,9.60
2017-06-13T07:41:19.516Z,7.53
2017-06-13T07:43:48.601Z,11.10
2017-06-13T07:46:17.661Z,10.80
2017-06-13T07:48:47.488Z,12.60
2017-06-13T07:51:16.567Z,10.93
2017-06-13T07:53:46.404Z,11.70
2017-06-13T07:56:15.477Z,11.70
2017-06-13T07:58:45.316Z,13.10
2017-06-13T08:01:14.425Z,12.10
2017-06-13T08:03:43.508Z,12.10
2017-06-13T08:06:12.552Z,11.63
2017-06-13T08:08:41.649Z,11.63
2017-06-13T08:11:10.939Z,13.00
2017-06-13T08:13:40.026Z,11.60
2017-06-13T08:16:09.144Z,12.53
2017-06-13T08:18:39.017Z,11.50
2017-06-13T08:21:08.076Z,12.03
2017-06-13T08:23:37.925Z,12.63
2017-06-13T08:26:07.565Z,12.17
2017-06-13T08:28:36.617Z,14.43
2017-06-13T08:31:05.753Z,14.17
2017-06-13T08:33:34.825Z,14.80
2017-06-13T08:36:03.889Z,14.50
2017-06-13T08:38:32.976Z,13.87
2017-06-13T08:41:02.064Z,13.47
2017-06-13T08:43:32.036Z,12.07
2017-06-13T08:46:01.097Z,13.23
2017-06-13T08:48:30.149Z,12.00
2017-06-13T08:50:59.239Z,12.63
2017-06-13T08:53:28.309Z,13.30
2017-06-13T08:55:57.359Z,13.27
2017-06-13T08:58:26.742Z,13.87
2017-06-13T09:00:55.764Z,13.87
2017-06-13T09:03:24.857Z,14.40
2017-06-13T09:05:53.909Z,12.90
2017-06-13T09:08:22.988Z,12.13
2017-06-13T09:10:52.039Z,11.73
2017-06-13T09:13:21.310Z,9.70
2017-06-13T09:15:50.392Z,8.40
2017-06-13T09:18:19.471Z,9.50
2017-06-13T09:20:48.534Z,10.87
2017-06-13T09:23:17.596Z,9.90
2017-06-13T09:25:46.665Z,10.30
2017-06-13T09:28:15.740Z,11.10
2017-06-13T09:30:45.109Z,10.70
2017-06-13T09:33:14.989Z,11.33
2017-06-13T09:35:44.050Z,9.80
2017-06-13T09:38:13.115Z,11.10
2017-06-13T09:40:43.081Z,9.70
2017-06-13T09:43:12.147Z,9.40
2017-06-13T09:45:41.219Z,7.50
2017-06-13T09:48:10.854Z,8.23
2017-06-13T09:50:39.912Z,11.10
2017-06-13T09:53:09.783Z,10.33
2017-06-13T09:55:39.737Z,12.70
2017-06-13T09:58:09.619Z,12.00
2017-06-13T10:00:38.660Z,8.00
2017-06-13T10:03:08.517Z,7.97
2017-06-13T10:05:37.867Z,8.37
2017-06-13T10:08:07.705Z,6.80
2017-06-13T10:10:37.544Z,7.30
2017-06-13T10:13:06.627Z,7.50
2017-06-13T10:15:35.684Z,7.13
2017-06-13T10:18:05.588Z,6.80
2017-06-13T10:20:34.620Z,7.67
2017-06-13T10:23:03.678Z,7.80
2017-06-13T10:25:33.520Z,8.00
2017-06-13T10:28:02.563Z,8.20
2017-06-13T10:30:31.627Z,7.90
2017-06-13T10:33:00.702Z,6.13
2017-06-13T10:35:29.766Z,4.80
2017-06-13T10:37:58.867Z,5.40
2017-06-13T10:40:27.950Z,4.80
2017-06-13T10:42:57.030Z,4.60
2017-06-13T10:45:26.063Z,3.50
2017-06-13T10:47:55.897Z,3.53
2017-06-13T10:50:24.987Z,3.57
2017-06-13T10:52:54.072Z,3.07
2017-06-13T10:55:23.156Z,3.20
2017-06-13T10:57:52.981Z,3.00
2017-06-13T11:00:22.097Z,2.90
2017-06-13T11:02:51.156Z,2.37
2017-06-13T11:05:21.003Z,2.80
2017-06-13T11:07:50.111Z,2.80
2017-06-13T11:10:19.151Z,2.53
2017-06-13T11:12:48.208Z,3.27
2017-06-13T11:15:17.286Z,2.80
2017-06-13T11:17:46.344Z,3.13
2017-06-13T11:20:16.176Z,2.57
2017-06-13T11:22:45.247Z,2.63
2017-06-13T11:25:14.680Z,2.63
2017-06-13T11:27:43.756Z,2.97
2017-06-13T11:30:12.837Z,3.20
2017-06-13T11:32:41.911Z,2.70
2017-06-13T11:35:10.968Z,2.10
2017-06-13T11:37:41.176Z,2.73
2017-06-13T11:40:10.241Z,2.90
2017-06-13T11:42:39.317Z,2.33
2017-06-13T11:45:08.663Z,3.33
2017-06-13T11:47:38.484Z,2.70
2017-06-13T11:50:07.556Z,2.60
2017-06-13T11:52:36.634Z,3.60
2017-06-13T11:55:06.026Z,2.63
2017-06-13T11:57:35.072Z,2.90
2017-06-13T12:00:04.274Z,3.20
2017-06-13T12:02:34.103Z,2.47
2017-06-13T12:05:03.219Z,2.20
2017-06-13T12:07:32.282Z,2.80
2017-06-13T12:10:01.467Z,2.77
2017-06-13T12:12:31.338Z,2.67
2017-06-13T12:15:00.395Z,2.30
2017-06-13T12:17:29.456Z,2.97
2017-06-13T12:19:59.287Z,2.70
2017-06-13T12:22:29.136Z,2.60
2017-06-13T12:24:58.196Z,2.87
2017-06-13T12:27:27.244Z,2.47
2017-06-13T12:29:56.324Z,2.97
2017-06-13T12:32:25.395Z,3.10
2017-06-13T12:34:54.577Z,2.50
2017-06-13T12:37:23.650Z,2.30
2017-06-13T12:39:53.480Z,3.30
2017-06-13T12:42:23.324Z,2.83
2017-06-13T12:44:52.466Z,3.47
2017-06-13T12:47:22.088Z,3.43
2017-06-13T12:49:52.306Z,2.97
2017-06-13T12:52:21.372Z,2.83
2017-06-13T12:54:52.417Z,2.73
2017-06-13T12:57:21.476Z,3.23
2017-06-13T12:59:51.182Z,3.20
2017-06-13T13:02:20.284Z,3.20
2017-06-13T13:04:49.428Z,3.10
2017-06-13T13:07:18.916Z,3.10
2017-06-13T13:09:48.063Z,3.43
2017-06-13T13:12:17.165Z,3.20
2017-06-13T13:14:46.235Z,3.90
2017-06-13T13:17:16.133Z,3.70
2017-06-13T13:19:45.166Z,3.60
2017-06-13T13:22:14.234Z,3.40
2017-06-13T13:24:43.295Z,4.43
2017-06-13T13:27:12.354Z,3.00
2017-06-13T13:29:41.419Z,3.57
2017-06-13T13:32:10.857Z,3.50
2017-06-13T13:34:39.935Z,3.53
2017-06-13T13:37:09.757Z,2.73
2017-06-13T13:39:39.572Z,3.57
2017-06-13T13:42:08.897Z,3.10
2017-06-13T13:44:37.968Z,3.40
2017-06-13T13:47:07.047Z,3.60
2017-06-13T13:49:36.853Z,3.10
2017-06-13T13:52:06.723Z,3.30
2017-06-13T13:54:35.792Z,2.60
2017-06-13T13:57:04.885Z,3.43
2017-06-13T13:59:33.945Z,4.20
2017-06-13T14:02:03.776Z,3.27
2017-06-13T14:04:33.613Z,3.10
2017-06-13T14:07:02.678Z,3.10
2017-06-13T14:09:31.739Z,3.20
2017-06-13T14:12:00.817Z,3.20
2017-06-13T14:14:29.869Z,3.30
2017-06-13T14:16:58.919Z,3.50
2017-06-13T14:19:27.992Z,3.57
2017-06-13T14:21:57.080Z,3.67
2017-06-13T14:24:26.156Z,3.60
2017-06-13T14:26:55.280Z,2.70
2017-06-13T14:29:24.320Z,3.53
2017-06-13T14:31:53.358Z,3.87
2017-06-13T14:34:22.776Z,3.60
2017-06-13T14:36:51.964Z,3.40
2017-06-13T14:39:21.056Z,3.27
2017-06-13T14:41:50.148Z,3.50
2017-06-13T14:44:19.245Z,4.03
2017-06-13T14:46:48.687Z,3.97
2017-06-13T14:49:19.358Z,4.20
2017-06-13T14:51:48.396Z,3.23
2017-06-13T14:54:17.769Z,4.23
2017-06-13T14:56:46.835Z,3.40
2017-06-13T14:59:16.095Z,3.70
2017-06-13T15:01:45.164Z,3.60
2017-06-13T15:04:14.259Z,2.90
2017-06-13T15:06:43.315Z,2.83
2017-06-13T15:09:12.517Z,3.17
2017-06-13T15:11:41.564Z,3.43
2017-06-13T15:14:10.756Z,3.20
2017-06-13T15:16:40.170Z,3.40
2017-06-13T15:19:09.348Z,2.90
2017-06-13T15:21:38.425Z,3.23
2017-06-13T15:24:07.484Z,3.57
2017-06-13T15:26:36.565Z,3.63
2017-06-13T15:29:05.676Z,3.10
2017-06-13T15:31:34.753Z,2.63
2017-06-13T15:34:03.831Z,3.07
2017-06-13T15:36:32.934Z,4.27
2017-06-13T15:39:02.003Z,3.30
2017-06-13T15:41:31.072Z,3.53
2017-06-13T15:44:00.900Z,3.07
2017-06-13T15:46:29.983Z,3.70
2017-06-13T15:48:59.824Z,3.97
2017-06-13T15:51:28.865Z,3.47
2017-06-13T15:53:57.917Z,3.60
2017-06-13T15:56:26.985Z,3.57
2017-06-13T15:58:57.088Z,4.77
2017-06-13T16:01:26.150Z,3.30
2017-06-13T16:03:55.192Z,3.70
2017-06-13T16:06:24.415Z,3.50
2017-06-13T16:08:53.764Z,4.90
2017-06-13T16:11:22.838Z,3.83
2017-06-13T16:13:51.943Z,3.70
2017-06-13T16:16:20.970Z,3.50
2017-06-13T16:18:50.907Z,3.80
2017-06-13T16:21:19.989Z,3.50
2017-06-13T16:23:50.135Z,3.50
2017-06-13T16:26:19.207Z,3.63
2017-06-13T16:28:48.559Z,3.80
2017-06-13T16:31:17.863Z,3.60
2017-06-13T16:33:46.919Z,3.70
2017-06-13T16:36:15.995Z,3.40
2017-06-13T16:38:45.833Z,4.37
2017-06-13T16:41:14.931Z,2.83
2017-06-13T16:43:44.002Z,3.10
2017-06-13T16:46:13.836Z,2.50
2017-06-13T16:48:42.899Z,3.10
2017-06-13T16:51:12.745Z,3.13
2017-06-13T16:53:41.804Z,2.93
2017-06-13T16:56:11.635Z,3.87
2017-06-13T16:58:40.676Z,2.90
2017-06-13T17:01:09.886Z,3.10
2017-06-13T17:03:38.936Z,3.00
2017-06-13T17:06:08.220Z,4.17
2017-06-13T17:08:37.280Z,3.40
2017-06-13T17:11:07.881Z,3.43
2017-06-13T17:13:38.493Z,3.20
2017-06-13T17:16:07.605Z,3.53
2017-06-13T17:18:36.671Z,3.80
2017-06-13T17:21:05.709Z,3.53
2017-06-13T17:23:34.803Z,3.57
2017-06-13T17:26:03.856Z,4.13
2017-06-13T17:28:32.956Z,3.50
2017-06-13T17:31:02.524Z,3.80
2017-06-13T17:33:31.585Z,3.70
2017-06-13T17:36:00.637Z,3.70
2017-06-13T17:38:30.940Z,3.40
2017-06-13T17:41:00.020Z,4.00
2017-06-13T17:43:29.117Z,3.73
2017-06-13T17:45:58.579Z,4.03
2017-06-13T17:48:27.641Z,4.77
2017-06-13T17:50:57.447Z,3.87
2017-06-13T17:53:26.502Z,4.47
2017-06-13T17:55:55.612Z,3.70
2017-06-13T17:58:24.884Z,4.03
2017-06-13T18:00:53.939Z,3.80
2017-06-13T18:03:23.772Z,3.50
2017-06-13T18:05:52.849Z,3.87
2017-06-13T18:08:21.959Z,3.77
2017-06-13T18:10:51.492Z,3.40
2017-06-13T18:13:20.596Z,3.93
2017-06-13T18:15:50.185Z,3.10
2017-06-13T18:18:19.243Z,3.50
2017-06-13T18:20:48.377Z,3.60
2017-06-13T18:23:18.488Z,3.53
2017-06-13T18:25:48.096Z,3.47
2017-06-13T18:28:17.167Z,3.67
2017-06-13T18:30:46.245Z,3.07
2017-06-13T18:33:15.385Z,3.53
2017-06-13T18:35:44.425Z,4.50
2017-06-13T18:38:13.524Z,3.27
2017-06-13T18:40:42.608Z,4.93
2017-06-13T18:43:11.652Z,3.93
2017-06-13T18:45:46.061Z,3.13
2017-06-13T18:48:16.446Z,2.17
2017-06-13T18:50:45.548Z,2.30
2017-06-13T18:53:14.657Z,2.47
2017-06-13T18:55:43.713Z,2.67
2017-06-13T18:58:12.904Z,2.37
2017-06-13T19:00:41.962Z,2.53
2017-06-13T19:03:12.192Z,2.50
2017-06-13T19:05:42.155Z,3.03
2017-06-13T19:08:11.239Z,2.50
2017-06-13T19:10:40.384Z,2.17
2017-06-13T19:13:09.511Z,2.00
2017-06-13T19:15:38.721Z,2.53
2017-06-13T19:18:07.812Z,2.40
2017-06-13T19:20:37.093Z,2.70
2017-06-13T19:23:07.585Z,3.03
2017-06-13T19:25:36.681Z,2.93
2017-06-13T19:28:06.340Z,2.20
2017-06-13T19:30:35.416Z,2.43
2017-06-13T19:33:05.285Z,2.57
2017-06-13T19:35:34.346Z,2.37
2017-06-13T19:38:03.445Z,2.70
2017-06-13T19:40:32.517Z,2.43
2017-06-13T19:43:02.357Z,2.73
2017-06-13T19:45:32.221Z,2.80
2017-06-13T19:48:01.264Z,2.13
2017-06-13T19:50:30.310Z,2.43
2017-06-13T19:52:59.380Z,2.90
2017-06-13T19:55:28.437Z,3.53
2017-06-13T19:57:57.886Z,2.67
2017-06-13T20:00:26.945Z,2.50
2017-06-13T20:02:56.635Z,3.47
2017-06-13T20:05:26.793Z,2.40
2017-06-13T20:07:55.856Z,3.43
2017-06-13T20:10:24.916Z,2.40
2017-06-13T20:12:54.731Z,2.67
2017-06-13T20:15:23.989Z,3.00
2017-06-13T20:17:53.294Z,3.00
2017-06-13T20:20:22.598Z,3.10
2017-06-13T20:23:10.183Z,3.30
2017-06-13T20:25:44.677Z,3.10
2017-06-13T20:28:16.873Z,2.80
2017-06-13T20:30:45.946Z,2.90
2017-06-13T20:33:15.004Z,2.50
2017-06-13T20:35:44.055Z,3.00
2017-06-13T20:38:13.928Z,2.80
2017-06-13T20:40:43.000Z,2.90
2017-06-13T20:43:12.052Z,2.50
2017-06-13T20:45:41.868Z,2.90
2017-06-13T20:48:11.727Z,3.00
2017-06-13T20:50:40.780Z,2.57
2017-06-13T20:53:10.599Z,3.00
2017-06-13T20:55:40.449Z,2.90
2017-06-13T20:58:09.667Z,2.93
2017-06-13T21:00:38.725Z,3.00
2017-06-13T21:03:07.905Z,3.20
2017-06-13T21:05:37.819Z,2.80
2017-06-13T21:08:07.648Z,3.13
2017-06-13T21:10:36.705Z,3.73
2017-06-13T21:13:05.792Z,4.07
2017-06-13T21:15:35.732Z,3.57
2017-06-13T21:18:05.566Z,3.43
2017-06-13T21:20:34.658Z,3.33
2017-06-13T21:23:03.737Z,3.30
2017-06-13T21:25:32.769Z,3.27
2017-06-13T21:28:01.847Z,3.30
2017-06-13T21:30:30.904Z,3.03
2017-06-13T21:32:59.979Z,3.43
2017-06-13T21:35:29.035Z,3.80
2017-06-13T21:37:58.097Z,3.40
2017-06-13T21:40:27.949Z,3.87
2017-06-13T21:42:57.035Z,3.43
2017-06-13T21:45:26.119Z,3.90
2017-06-13T21:47:55.944Z,3.87
2017-06-13T21:50:25.323Z,4.33
2017-06-13T21:52:54.367Z,4.10
2017-06-13T21:55:23.547Z,4.37
2017-06-13T21:57:52.636Z,4.10
2017-06-13T22:00:21.724Z,4.07
2017-06-13T22:02:52.020Z,3.63
2017-06-13T22:05:21.144Z,4.10
2017-06-13T22:07:50.693Z,3.90
2017-06-13T22:10:19.799Z,4.60
2017-06-13T22:12:49.185Z,4.17
2017-06-13T22:15:18.550Z,5.10
2017-06-13T22:17:48.024Z,4.90
2017-06-13T22:20:17.109Z,4.20
2017-06-13T22:22:46.716Z,4.00
2017-06-13T22:25:16.115Z,3.97
2017-06-13T22:27:45.442Z,4.57
2017-06-13T22:30:14.496Z,4.40
2017-06-13T22:32:43.540Z,4.83
2017-06-13T22:35:12.618Z,5.30
2017-06-13T22:37:41.669Z,4.37
2017-06-13T22:40:10.738Z,4.77
2017-06-13T22:42:39.799Z,4.77
2017-06-13T22:45:09.355Z,4.77
2017-06-13T22:47:38.397Z,5.33
2017-06-13T22:50:07.509Z,5.37
2017-06-13T22:52:36.580Z,5.37
2017-06-13T22:55:05.628Z,4.43
2017-06-13T22:57:34.760Z,5.03
2017-06-13T23:00:03.819Z,4.97
2017-06-13T23:02:32.852Z,6.70
2017-06-13T23:05:01.972Z,5.60
2017-06-13T23:07:31.065Z,6.33
2017-06-13T23:10:00.892Z,6.00
2017-06-13T23:12:29.961Z,5.90
2017-06-13T23:14:59.021Z,7.03
2017-06-13T23:17:28.072Z,6.27
2017-06-13T23:19:57.163Z,7.10
2017-06-13T23:22:26.191Z,6.90
2017-06-13T23:24:55.265Z,6.70
2017-06-13T23:27:24.303Z,7.50
2017-06-13T23:29:53.400Z,7.80
2017-06-13T23:32:22.445Z,7.93
2017-06-13T23:34:51.623Z,8.10
2017-06-13T23:37:20.692Z,8.07
2017-06-13T23:39:50.272Z,7.80
2017-06-13T23:42:19.329Z,7.10
2017-06-13T23:44:48.718Z,7.00
2017-06-13T23:47:18.352Z,7.43
2017-06-13T23:49:47.435Z,8.73
2017-06-13T23:52:16.515Z,6.73
2017-06-13T23:54:45.563Z,6.70
2017-06-13T23:57:14.692Z,6.53
2017-06-13T23:59:43.752Z,7.63
